Time;durP1;ratioP1;P1;durP2;ratioP2;P2;SDS_P1;SDS_P2;PMS_P1;PMS_P2;Temp;Humidity;BMP_temperature;BMP_pressure;BME280_temperature;BME280_humidity;BME280_pressure;Samples;Min_cycle;Max_cycle;Signal;HPM_P1;HPM_P2
2023/08/09 00:01:44;;;;;;;6.45;3.10;;;;;;;12.46;88.73;100014.13;10124723;28;20059;-78
2023/08/09 00:06:47;;;;;;;6.70;3.75;;;;;;;12.39;89.03;100013.00;10127930;28;20049;-77
2023/08/09 00:11:50;;;;;;;7.57;3.95;;;;;;;12.35;88.69;100006.22;10128683;29;20056;-78
2023/08/09 00:16:54;;;;;;;5.63;4.30;;;;;;;12.16;89.83;100010.59;10136095;29;20061;-78
2023/08/09 00:21:57;;;;;;;6.55;3.90;;;;;;;12.19;89.65;100003.25;10129075;29;20063;-75
2023/08/09 00:27:01;;;;;;;5.25;3.92;;;;;;;12.07;90.45;99999.88;10124802;28;20082;-77
2023/08/09 00:32:07;;;;;;;8.77;4.32;;;;;;;12.00;90.46;100004.97;10134874;28;20044;-77
2023/08/09 00:37:10;;;;;;;6.60;3.85;;;;;;;11.90;90.67;99999.59;10129591;29;20044;-77
2023/08/09 00:42:12;;;;;;;4.93;3.92;;;;;;;11.94;90.80;99997.47;10157342;29;20723;-76
2023/08/09 00:47:17;;;;;;;6.25;3.55;;;;;;;11.73;91.88;100002.97;10177470;29;20058;-77
2023/08/09 00:52:20;;;;;;;8.45;4.60;;;;;;;11.81;91.89;100005.81;10163335;28;20053;-75
2023/08/09 00:57:23;;;;;;;6.50;4.45;;;;;;;11.97;91.30;100005.25;10132803;29;20422;-78
2023/08/09 01:02:28;;;;;;;7.80;4.80;;;;;;;12.07;90.52;99995.31;10129565;28;20059;-77
2023/08/09 01:07:39;;;;;;;5.88;3.95;;;;;;;11.77;90.88;100006.25;10124847;29;20115;-78
2023/08/09 01:12:46;;;;;;;8.27;5.30;;;;;;;11.92;91.33;100013.75;10131083;29;20047;-79
2023/08/09 01:17:53;;;;;;;7.97;5.32;;;;;;;12.27;91.19;100003.38;10121365;29;20055;-78
2023/08/09 01:23:01;;;;;;;9.80;5.25;;;;;;;12.41;90.83;99988.63;10123499;28;20151;-78
2023/08/09 01:28:06;;;;;;;7.45;5.28;;;;;;;12.37;90.58;99988.09;10120192;29;20060;-78
2023/08/09 01:33:08;;;;;;;7.35;5.15;;;;;;;12.26;89.75;99990.88;10130055;29;20051;-77
2023/08/09 01:38:19;;;;;;;10.57;5.10;;;;;;;12.10;90.10;99992.34;10128846;29;20639;-78
2023/08/09 01:43:23;;;;;;;6.50;4.95;;;;;;;11.90;90.20;99994.22;10130249;29;20111;-78
2023/08/09 01:48:28;;;;;;;6.70;5.47;;;;;;;11.89;90.21;100000.56;10130291;28;20119;-78
2023/08/09 01:53:31;;;;;;;9.75;5.28;;;;;;;11.81;90.39;100015.72;10131969;29;20050;-77
2023/08/09 01:58:35;;;;;;;7.10;5.75;;;;;;;11.83;90.63;100024.53;10129268;29;20060;-78
2023/08/09 02:03:38;;;;;;;6.60;5.05;;;;;;;11.89;90.65;100038.25;10129376;29;20434;-78
2023/08/09 02:08:44;;;;;;;9.05;5.78;;;;;;;11.85;90.16;100038.69;10134244;29;20055;-78
2023/08/09 02:13:49;;;;;;;6.95;5.10;;;;;;;11.81;90.56;100039.94;10125680;28;20593;-77
2023/08/09 02:18:52;;;;;;;6.75;4.75;;;;;;;11.75;90.26;100046.75;10121722;29;20139;-76
2023/08/09 02:23:55;;;;;;;7.93;5.47;;;;;;;11.73;90.54;100046.88;10121986;29;20056;-77
2023/08/09 02:29:00;;;;;;;9.73;6.13;;;;;;;11.69;90.43;100060.75;10122521;29;20049;-78
2023/08/09 02:34:05;;;;;;;10.73;6.43;;;;;;;11.54;90.20;100059.44;10121843;29;20059;-77
2023/08/09 02:39:08;;;;;;;10.60;6.30;;;;;;;11.31;90.76;100066.91;10124527;28;20080;-77
2023/08/09 02:44:12;;;;;;;8.50;6.15;;;;;;;11.32;90.58;100076.66;10131801;28;20052;-79
2023/08/09 02:49:15;;;;;;;10.15;6.72;;;;;;;11.44;91.09;100084.50;10128725;29;20067;-77
2023/08/09 02:54:19;;;;;;;9.40;6.97;;;;;;;11.46;90.69;100084.34;10125255;29;20048;-78
2023/08/09 02:59:24;;;;;;;12.43;8.13;;;;;;;11.17;92.49;100089.63;10127656;29;20146;-78
2023/08/09 03:04:26;;;;;;;14.90;8.60;;;;;;;11.10;92.89;100102.72;10148242;28;20044;-78
2023/08/09 03:09:29;;;;;;;13.63;9.63;;;;;;;10.91;94.81;100099.94;10125476;29;21265;-78
2023/08/09 03:14:34;;;;;;;15.82;10.27;;;;;;;11.01;92.82;100112.44;10122976;29;20516;-78
2023/08/09 03:19:37;;;;;;;15.15;10.90;;;;;;;11.13;91.27;100113.22;10126889;29;20052;-78
2023/08/09 03:24:40;;;;;;;17.98;11.63;;;;;;;10.64;92.55;100122.84;10128852;29;20543;-78
2023/08/09 03:29:44;;;;;;;14.57;10.43;;;;;;;11.02;90.88;100121.34;10133751;29;20079;-78
2023/08/09 03:34:49;;;;;;;17.33;10.52;;;;;;;11.10;89.89;100118.84;10129718;28;20066;-77
2023/08/09 03:39:52;;;;;;;14.98;9.90;;;;;;;11.10;89.65;100131.44;10136143;28;20546;-78
2023/08/09 03:44:56;;;;;;;16.30;10.20;;;;;;;10.98;90.55;100130.69;10125727;29;20154;-76
2023/08/09 03:49:59;;;;;;;12.27;9.63;;;;;;;10.90;90.52;100141.25;10120204;29;20431;-77
2023/08/09 03:55:06;;;;;;;13.82;10.30;;;;;;;10.87;90.34;100152.25;10127803;29;20515;-76
2023/08/09 04:00:17;;;;;;;14.85;10.13;;;;;;;11.03;90.06;100150.78;10139023;28;20071;-76
2023/08/09 04:05:21;;;;;;;13.73;9.52;;;;;;;11.10;90.06;100153.78;10130924;28;20075;-77
2023/08/09 04:10:24;;;;;;;14.13;10.35;;;;;;;11.09;90.02;100159.31;10127844;29;20059;-77
2023/08/09 04:15:28;;;;;;;17.60;9.93;;;;;;;11.08;89.83;100171.91;10130407;29;20052;-77
2023/08/09 04:20:32;;;;;;;15.57;10.77;;;;;;;11.04;89.94;100171.31;10137799;29;20048;-77
2023/08/09 04:25:35;;;;;;;12.80;9.82;;;;;;;11.03;89.87;100169.63;10129784;29;20099;-77
2023/08/09 04:30:39;;;;;;;19.02;11.48;;;;;;;11.01;89.83;100179.63;10129234;28;20056;-77
2023/08/09 04:35:43;;;;;;;16.83;10.40;;;;;;;10.98;89.76;100181.75;10131397;29;20078;-78
2023/08/09 04:40:47;;;;;;;13.23;9.05;;;;;;;10.83;90.05;100186.56;10127102;29;20104;-77
2023/08/09 04:45:51;;;;;;;17.20;10.27;;;;;;;10.67;90.58;100196.91;10125848;29;20048;-76
2023/08/09 04:50:54;;;;;;;16.17;10.50;;;;;;;10.89;90.18;100199.50;10131409;29;20127;-77
2023/08/09 04:55:58;;;;;;;17.08;10.80;;;;;;;10.91;90.53;100197.53;10130063;28;20048;-79
2023/08/09 05:01:02;;;;;;;19.10;10.43;;;;;;;10.89;91.05;100206.69;10127770;28;20055;-76
2023/08/09 05:06:05;;;;;;;15.90;11.00;;;;;;;10.80;91.22;100211.03;10119555;29;20695;-77
2023/08/09 05:11:08;;;;;;;19.35;10.93;;;;;;;10.95;91.55;100212.41;10120718;29;20059;-77
2023/08/09 05:16:12;;;;;;;20.02;11.20;;;;;;;11.04;91.24;100221.53;10151597;29;20047;-78
2023/08/09 05:21:15;;;;;;;17.08;10.80;;;;;;;10.85;92.55;100230.31;10125368;28;20403;-77
2023/08/09 05:26:18;;;;;;;14.93;10.45;;;;;;;11.02;91.61;100228.88;10127362;28;20055;-78
2023/08/09 05:31:22;;;;;;;17.88;11.35;;;;;;;11.06;91.37;100224.94;10130460;29;20068;-77
2023/08/09 05:36:26;;;;;;;19.23;11.63;;;;;;;10.82;93.04;100227.88;10130082;29;20051;-78
2023/08/09 05:41:29;;;;;;;20.35;11.48;;;;;;;10.94;92.37;100234.03;10125611;29;20052;-78
2023/08/09 05:46:34;;;;;;;16.25;10.63;;;;;;;11.23;91.36;100234.28;10131354;29;20055;-79
2023/08/09 05:51:36;;;;;;;17.23;10.32;;;;;;;11.31;91.66;100242.53;10125819;28;21204;-78
2023/08/09 05:56:39;;;;;;;14.63;10.45;;;;;;;11.46;90.40;100241.22;10122224;28;20243;-78
2023/08/09 06:01:44;;;;;;;19.38;9.95;;;;;;;11.75;89.80;100240.47;10129558;29;20072;-78
2023/08/09 06:06:47;;;;;;;16.70;9.40;;;;;;;11.71;89.77;100247.97;10131037;29;20044;-78
2023/08/09 06:11:50;;;;;;;17.35;9.52;;;;;;;11.64;89.62;100260.25;10119162;29;20059;-78
2023/08/09 06:16:54;;;;;;;15.50;9.43;;;;;;;11.84;90.01;100271.09;10121512;28;20081;-78
2023/08/09 06:21:57;;;;;;;14.55;8.45;;;;;;;12.08;88.25;100268.09;10123917;28;20056;-77
2023/08/09 06:26:59;;;;;;;11.52;8.23;;;;;;;11.84;88.43;100282.72;10125053;28;20398;-77
2023/08/09 06:32:05;;;;;;;14.60;9.50;;;;;;;12.30;87.49;100283.19;10120105;29;20050;-78
2023/08/09 06:37:08;;;;;;;12.40;7.05;;;;;;;12.40;85.78;100278.69;10123912;29;20072;-79
2023/08/09 06:42:13;;;;;;;10.02;6.80;;;;;;;12.24;85.03;100287.25;10131766;29;20485;-78
2023/08/09 06:47:19;;;;;;;8.45;6.53;;;;;;;12.21;85.22;100295.63;10131426;28;20392;-79
2023/08/09 06:52:22;;;;;;;8.65;6.53;;;;;;;12.48;84.34;100299.53;10143540;28;20436;-78
2023/08/09 06:57:25;;;;;;;12.68;7.72;;;;;;;13.10;83.92;100309.09;10153963;29;20043;-78
2023/08/09 07:02:30;;;;;;;10.15;5.68;;;;;;;12.94;83.03;100320.44;10142797;29;20052;-79
2023/08/09 07:07:32;;;;;;;5.90;5.05;;;;;;;12.74;81.30;100329.50;10135616;29;20439;-80
2023/08/09 07:12:35;;;;;;;8.20;5.78;;;;;;;12.78;82.65;100330.91;10138537;29;20544;-78
2023/08/09 07:17:40;;;;;;;8.90;5.50;;;;;;;13.56;82.55;100326.41;10144558;28;20571;-80
2023/08/09 07:22:44;;;;;;;6.70;4.82;;;;;;;13.35;79.83;100336.47;10141987;29;20127;-78
2023/08/09 07:27:49;;;;;;;8.13;4.43;;;;;;;13.59;79.12;100333.34;10152979;28;20721;-79
2023/08/09 07:32:53;;;;;;;5.78;4.20;;;;;;;14.18;78.80;100342.97;10139109;29;20067;-80
2023/08/09 07:37:56;;;;;;;7.22;4.00;;;;;;;14.22;78.34;100340.81;10137193;29;21154;-79
2023/08/09 07:43:01;;;;;;;6.40;3.60;;;;;;;14.00;74.63;100350.16;10133112;28;20128;-78
2023/08/09 07:48:06;;;;;;;5.82;3.47;;;;;;;14.29;76.28;100356.28;10134577;29;20048;-79
2023/08/09 07:53:09;;;;;;;4.68;3.25;;;;;;;14.68;74.89;100361.53;10134184;28;20048;-79
2023/08/09 07:58:12;;;;;;;3.47;2.88;;;;;;;14.90;75.68;100370.22;10129806;29;20056;-79
2023/08/09 08:03:16;;;;;;;7.32;3.10;;;;;;;15.09;71.63;100375.47;10123156;29;20060;-79
2023/08/09 08:08:19;;;;;;;4.72;2.92;;;;;;;15.08;71.08;100383.72;10129341;28;20063;-78
2023/08/09 08:13:23;;;;;;;4.32;2.47;;;;;;;15.11;68.53;100392.41;10133697;29;20729;-78
2023/08/09 08:18:27;;;;;;;3.35;3.00;;;;;;;15.71;65.99;100375.53;10127435;29;20056;-78
2023/08/09 08:23:32;;;;;;;2.88;2.28;;;;;;;16.30;67.20;100379.31;10125032;29;20051;-78
2023/08/09 08:28:34;;;;;;;3.63;2.10;;;;;;;16.63;65.32;100384.88;10123315;29;20044;-78
2023/08/09 08:33:44;;;;;;;1.65;1.55;;;;;;;16.10;64.51;100391.38;10121035;29;20719;-77
2023/08/09 08:38:47;;;;;;;2.97;1.48;;;;;;;16.12;62.72;100387.47;10125040;28;20044;-77
2023/08/09 08:43:50;;;;;;;2.08;1.88;;;;;;;16.46;63.27;100386.69;10128362;28;20056;-76
2023/08/09 08:48:58;;;;;;;3.42;1.70;;;;;;;17.31;58.65;100389.31;10126326;29;20062;-77
2023/08/09 08:54:02;;;;;;;1.70;1.30;;;;;;;17.06;60.49;100396.53;10122110;29;20058;-77
2023/08/09 08:59:06;;;;;;;1.38;1.20;;;;;;;18.06;56.75;100388.28;10124948;28;20048;-77
2023/08/09 09:04:10;;;;;;;2.58;1.25;;;;;;;17.92;57.11;100395.22;10122549;29;20522;-77
2023/08/09 09:09:14;;;;;;;2.60;1.50;;;;;;;17.05;57.28;100408.38;10121977;29;20147;-77
2023/08/09 09:14:18;;;;;;;3.05;1.50;;;;;;;17.64;56.25;100405.63;10125617;29;20128;-77
2023/08/09 09:19:24;;;;;;;2.13;1.20;;;;;;;17.40;54.65;100401.03;10132172;29;20093;-77
2023/08/09 09:24:26;;;;;;;2.78;1.20;;;;;;;17.74;53.86;100392.69;10132874;29;20048;-76
2023/08/09 09:29:33;;;;;;;1.35;1.10;;;;;;;18.48;53.15;100398.84;10132475;29;20068;-77
2023/08/09 09:34:38;;;;;;;10.10;1.95;;;;;;;18.61;51.41;100395.56;10130539;28;20519;-77
2023/08/09 09:39:42;;;;;;;1.83;0.73;;;;;;;18.72;50.03;100407.94;10135356;28;20048;-76
2023/08/09 09:44:46;;;;;;;1.67;1.05;;;;;;;18.55;50.84;100408.00;10126890;29;20531;-76
2023/08/09 09:49:53;;;;;;;0.80;0.77;;;;;;;17.75;50.18;100410.72;10128104;29;20060;-77
2023/08/09 09:54:57;;;;;;;3.25;0.85;;;;;;;18.18;49.59;100415.94;10129698;29;20049;-77
2023/08/09 10:00:08;;;;;;;0.80;0.80;;;;;;;19.35;47.48;100403.34;10126256;29;20052;-77
2023/08/09 10:05:18;;;;;;;1.80;0.82;;;;;;;18.23;49.09;100410.81;10124771;28;20071;-77
2023/08/09 10:10:22;;;;;;;0.93;0.70;;;;;;;18.24;50.13;100426.09;10119414;29;20527;-76
2023/08/09 10:15:30;;;;;;;2.33;0.90;;;;;;;19.00;48.38;100427.38;10122398;29;20060;-77
2023/08/09 10:20:35;;;;;;;3.08;0.57;;;;;;;19.51;45.79;100427.75;10125853;29;21241;-78
2023/08/09 10:25:45;;;;;;;1.83;0.90;;;;;;;19.74;45.51;100421.44;10125297;29;20060;-78
2023/08/09 10:30:51;;;;;;;1.75;0.80;;;;;;;18.79;46.92;100436.19;10132564;28;20055;-77
2023/08/09 10:35:56;;;;;;;1.83;0.80;;;;;;;19.15;45.28;100430.22;10138061;29;20051;-77
2023/08/09 10:41:02;;;;;;;1.50;1.00;;;;;;;19.71;44.93;100440.91;10133779;29;20127;-77
2023/08/09 10:46:18;;;;;;;1.83;0.90;;;;;;;19.64;45.51;100444.34;10134410;29;20131;-77
2023/08/09 10:51:24;;;;;;;1.27;0.75;;;;;;;20.32;42.99;100438.97;10131536;29;20060;-78
2023/08/09 10:56:32;;;;;;;0.60;0.60;;;;;;;18.90;45.90;100448.53;10137425;28;20048;-77
2023/08/09 11:01:35;;;;;;;2.45;0.70;;;;;;;18.92;42.94;100441.03;10130759;29;20547;-77
2023/08/09 11:06:41;;;;;;;1.40;0.55;;;;;;;20.38;41.81;100440.09;10132376;29;20107;-78
2023/08/09 11:11:47;;;;;;;0.70;0.60;;;;;;;20.00;42.07;100440.97;10133281;29;20052;-77
2023/08/09 11:16:51;;;;;;;1.67;0.90;;;;;;;20.95;41.45;100445.75;10136372;29;20071;-77
2023/08/09 11:22:05;;;;;;;1.30;0.52;;;;;;;19.74;42.51;100467.78;10134314;28;20044;-77
2023/08/09 11:27:12;;;;;;;1.13;0.80;;;;;;;19.89;43.26;100447.72;10134563;28;20048;-75
2023/08/09 11:32:15;;;;;;;1.98;0.98;;;;;;;19.67;43.94;100452.16;10124773;28;20064;-77
2023/08/09 11:37:19;;;;;;;0.95;0.65;;;;;;;21.53;41.99;100450.38;10132764;28;20052;-78
2023/08/09 11:42:23;;;;;;;2.38;0.80;;;;;;;21.91;39.01;100450.13;10124809;29;20406;-76
2023/08/09 11:47:27;;;;;;;0.85;0.68;;;;;;;20.14;40.22;100455.69;10125893;29;20139;-76
2023/08/09 11:52:31;;;;;;;0.98;0.57;;;;;;;20.29;41.72;100452.94;10127144;28;20534;-76
2023/08/09 11:57:35;;;;;;;1.85;0.70;;;;;;;20.22;41.09;100447.41;10131499;28;20059;-76
2023/08/09 12:02:38;;;;;;;1.20;0.70;;;;;;;19.63;42.51;100458.16;10129337;29;20130;-77
2023/08/09 12:07:43;;;;;;;2.53;1.08;;;;;;;20.59;41.51;100458.47;10130558;29;20055;-77
2023/08/09 12:12:45;;;;;;;2.30;0.60;;;;;;;21.67;41.02;100463.16;10130551;29;20083;-76
2023/08/09 12:17:48;;;;;;;0.80;0.80;;;;;;;20.30;40.60;100468.31;10126393;28;20059;-76
2023/08/09 12:22:53;;;;;;;1.58;0.70;;;;;;;18.87;43.21;100476.97;10129258;28;20074;-76
2023/08/09 12:27:55;;;;;;;4.50;1.98;;;;;;;19.35;43.53;100485.06;10127611;29;20051;-75
2023/08/09 12:32:58;;;;;;;2.92;0.95;;;;;;;19.56;43.75;100489.91;10127980;29;20048;-77
2023/08/09 12:38:03;;;;;;;2.40;0.70;;;;;;;21.25;41.12;100483.91;10131714;29;20654;-76
2023/08/09 12:43:06;;;;;;;2.03;1.08;;;;;;;19.17;43.01;100483.47;10125946;29;20458;-76
2023/08/09 12:48:09;;;;;;;1.83;0.70;;;;;;;19.82;43.03;100487.63;10118603;28;20055;-76
2023/08/09 12:53:14;;;;;;;2.83;1.05;;;;;;;21.99;39.31;100477.34;10123686;28;20052;-76
2023/08/09 12:58:16;;;;;;;2.88;1.00;;;;;;;22.08;38.91;100478.91;10124039;29;20431;-77
2023/08/09 13:03:19;;;;;;;1.92;0.77;;;;;;;21.68;38.97;100489.44;10123494;29;20167;-77
2023/08/09 13:08:23;;;;;;;1.20;0.88;;;;;;;22.92;38.03;100478.84;10126796;29;20072;-76
2023/08/09 13:13:26;;;;;;;1.58;0.82;;;;;;;22.38;36.98;100482.31;10130491;28;20678;-76
2023/08/09 13:18:29;;;;;;;2.35;0.80;;;;;;;22.16;37.11;100497.94;10127537;28;20048;-76
2023/08/09 13:23:33;;;;;;;1.23;0.80;;;;;;;22.33;36.29;100474.69;10125763;29;20177;-77
2023/08/09 13:28:36;;;;;;;2.70;0.90;;;;;;;21.62;38.90;100482.03;10124243;29;20052;-76
2023/08/09 13:33:39;;;;;;;2.63;0.93;;;;;;;21.35;39.09;100489.94;10126210;29;20049;-77
2023/08/09 13:38:43;;;;;;;0.70;0.70;;;;;;;22.46;37.34;100484.91;10127200;29;20052;-77
2023/08/09 13:43:46;;;;;;;1.73;0.88;;;;;;;23.70;35.36;100484.00;10125007;28;20062;-77
2023/08/09 13:48:49;;;;;;;2.65;0.90;;;;;;;22.95;36.19;100483.91;10129439;29;20046;-76
2023/08/09 13:53:54;;;;;;;1.40;0.90;;;;;;;23.35;36.08;100494.22;10132984;29;20055;-76
2023/08/09 13:58:57;;;;;;;0.73;0.60;;;;;;;23.82;34.03;100492.47;10120070;29;20154;-76
2023/08/09 14:04:00;;;;;;;1.50;0.93;;;;;;;22.64;35.49;100502.72;10133205;29;20059;-77
2023/08/09 14:09:05;;;;;;;1.70;0.98;;;;;;;22.03;35.88;100506.84;10128183;28;20708;-78
2023/08/09 14:14:08;;;;;;;3.13;0.82;;;;;;;22.49;37.31;100508.28;10130845;29;20609;-77
2023/08/09 14:19:12;;;;;;;4.20;0.95;;;;;;;23.16;35.61;100499.44;10118822;29;20051;-77
2023/08/09 14:24:17;;;;;;;2.92;0.90;;;;;;;22.30;37.15;100507.09;10121310;29;20124;-77
2023/08/09 14:29:20;;;;;;;2.75;0.80;;;;;;;22.90;36.01;100511.09;10129028;29;20075;-77
2023/08/09 14:34:23;;;;;;;1.00;0.60;;;;;;;23.95;34.69;100481.50;10127599;29;20048;-77
2023/08/09 14:39:27;;;;;;;1.92;0.75;;;;;;;23.96;36.13;100494.16;10126072;28;20051;-76
2023/08/09 14:44:30;;;;;;;1.35;0.82;;;;;;;22.94;36.47;100506.88;10122862;28;21085;-75
2023/08/09 14:49:33;;;;;;;2.75;1.25;;;;;;;21.67;38.67;100509.63;10128719;29;20048;-78
2023/08/09 14:54:38;;;;;;;1.40;1.00;;;;;;;21.34;39.11;100507.38;10126795;29;20051;-76
2023/08/09 14:59:41;;;;;;;1.88;1.15;;;;;;;20.62;40.77;100510.78;10130466;29;20053;-76
2023/08/09 15:04:44;;;;;;;1.52;0.80;;;;;;;20.39;41.07;100508.13;10135371;28;21283;-77
2023/08/09 15:09:48;;;;;;;1.20;0.98;;;;;;;20.14;41.69;100518.41;10133307;28;20066;-77
2023/08/09 15:14:51;;;;;;;3.25;1.17;;;;;;;21.45;40.05;100520.53;10132346;29;20437;-76
2023/08/09 15:19:54;;;;;;;2.83;0.98;;;;;;;22.73;37.88;100512.44;10142370;29;20063;-77
2023/08/09 15:25:01;;;;;;;3.03;1.08;;;;;;;23.34;37.76;100517.19;10139967;29;20102;-77
2023/08/09 15:30:04;;;;;;;3.30;1.08;;;;;;;24.36;35.82;100504.31;10137142;29;20052;-78
2023/08/09 15:35:08;;;;;;;1.55;1.00;;;;;;;24.08;36.77;100508.13;10129207;28;21613;-76
2023/08/09 15:40:13;;;;;;;4.25;1.17;;;;;;;22.00;40.03;100517.34;10130463;28;20048;-79
2023/08/09 15:45:16;;;;;;;2.85;1.20;;;;;;;21.61;41.11;100513.13;10134330;29;20048;-78
2023/08/09 15:50:19;;;;;;;1.95;1.15;;;;;;;20.97;42.14;100517.38;10139587;29;20055;-79
2023/08/09 15:55:27;;;;;;;3.22;1.15;;;;;;;20.25;43.77;100520.69;10139362;29;20508;-79
2023/08/09 16:00:31;;;;;;;1.48;1.10;;;;;;;20.77;43.26;100528.03;10141869;28;20060;-79
2023/08/09 16:05:51;;;;;;;2.53;1.30;;;;;;;20.69;44.30;100528.09;10140388;28;20065;-79
2023/08/09 16:10:55;;;;;;;2.63;1.15;;;;;;;19.91;45.58;100534.75;10142895;29;20055;-79
2023/08/09 16:15:59;;;;;;;1.40;1.20;;;;;;;21.70;43.01;100530.28;10143613;28;20433;-79
2023/08/09 16:21:01;;;;;;;2.70;1.13;;;;;;;22.27;41.62;100535.69;10144093;29;20180;-79
2023/08/09 16:26:06;;;;;;;3.72;1.40;;;;;;;21.76;42.65;100532.25;10138935;29;20048;-79
2023/08/09 16:31:09;;;;;;;3.60;1.50;;;;;;;22.25;42.10;100536.91;10127550;28;20570;-80
2023/08/09 16:36:11;;;;;;;2.20;1.40;;;;;;;21.46;43.41;100543.22;10129462;28;20044;-80
2023/08/09 16:41:16;;;;;;;1.65;1.52;;;;;;;20.05;46.13;100544.88;10125419;29;20048;-79
2023/08/09 16:46:19;;;;;;;4.45;1.30;;;;;;;19.84;47.02;100545.53;10126788;29;20048;-79
2023/08/09 16:51:22;;;;;;;3.40;1.25;;;;;;;19.33;48.07;100545.13;10121878;29;20057;-79
2023/08/09 16:56:26;;;;;;;6.65;1.73;;;;;;;19.62;47.24;100546.38;10125974;28;20465;-79
2023/08/09 17:01:29;;;;;;;2.17;1.85;;;;;;;20.58;46.13;100544.94;10122483;28;20261;-78
2023/08/09 17:06:32;;;;;;;4.10;1.77;;;;;;;21.09;45.16;100547.84;10118900;29;20755;-80
2023/08/09 17:11:36;;;;;;;2.65;2.00;;;;;;;21.07;45.23;100549.91;10131237;29;20048;-77
2023/08/09 17:16:39;;;;;;;4.43;1.70;;;;;;;21.43;44.49;100547.19;10140188;28;20052;-77
2023/08/09 17:21:42;;;;;;;2.03;1.77;;;;;;;21.83;42.03;100555.91;10136416;29;20052;-77
2023/08/09 17:26:47;;;;;;;2.13;1.63;;;;;;;22.09;41.92;100548.97;10136641;28;20056;-77
2023/08/09 17:31:51;;;;;;;2.58;1.83;;;;;;;23.09;39.87;100549.72;10129501;29;20106;-76
2023/08/09 17:36:54;;;;;;;2.35;1.60;;;;;;;21.00;44.51;100560.69;10126553;29;20055;-77
2023/08/09 17:41:59;;;;;;;2.13;1.92;;;;;;;19.90;46.99;100563.06;10125706;29;20050;-77
2023/08/09 17:47:01;;;;;;;6.03;2.63;;;;;;;19.17;49.08;100564.25;10134410;29;20048;-77
2023/08/09 17:52:06;;;;;;;2.72;2.47;;;;;;;18.70;50.68;100557.75;10122865;28;20534;-77
2023/08/09 17:57:10;;;;;;;4.60;2.13;;;;;;;18.33;50.86;100564.59;10118800;29;20036;-77
2023/08/09 18:02:13;;;;;;;5.00;2.33;;;;;;;18.29;51.64;100565.97;10118219;29;20055;-76
2023/08/09 18:07:17;;;;;;;2.65;2.25;;;;;;;18.00;52.36;100571.06;10129813;28;20435;-77
2023/08/09 18:12:21;;;;;;;4.63;2.75;;;;;;;18.18;52.40;100576.31;10129546;29;20056;-77
2023/08/09 18:17:24;;;;;;;3.42;2.42;;;;;;;18.20;52.57;100591.44;10133327;28;20087;-77
2023/08/09 18:22:28;;;;;;;4.15;2.97;;;;;;;18.05;53.41;100594.00;10122124;29;20060;-76
2023/08/09 18:27:33;;;;;;;4.25;2.65;;;;;;;18.18;52.90;100600.78;10119084;29;20135;-77
2023/08/09 18:32:37;;;;;;;3.15;2.85;;;;;;;18.17;52.91;100608.09;10124113;29;20423;-77
2023/08/09 18:37:40;;;;;;;6.22;3.47;;;;;;;18.13;53.02;100607.59;10134991;29;20443;-77
2023/08/09 18:42:44;;;;;;;3.55;2.60;;;;;;;18.01;53.43;100614.38;10128441;29;20512;-77
2023/08/09 18:47:48;;;;;;;2.92;2.67;;;;;;;17.88;53.81;100613.97;10121343;29;20049;-77
2023/08/09 18:52:50;;;;;;;4.57;2.97;;;;;;;17.77;54.38;100612.44;10129530;29;20420;-77
2023/08/09 18:57:56;;;;;;;5.93;2.83;;;;;;;17.75;54.77;100625.34;10130933;29;20678;-77
2023/08/09 19:02:59;;;;;;;3.70;2.60;;;;;;;17.74;56.75;100625.47;10142268;29;20045;-77
2023/08/09 19:08:04;;;;;;;3.13;2.65;;;;;;;17.56;56.69;100640.03;10147386;29;20047;-77
2023/08/09 19:13:08;;;;;;;5.50;3.65;;;;;;;17.65;56.01;100635.47;10133376;29;20050;-77
2023/08/09 19:18:11;;;;;;;3.63;3.30;;;;;;;17.72;56.21;100635.66;10133090;29;20056;-77
2023/08/09 19:23:14;;;;;;;2.88;2.65;;;;;;;17.60;55.93;100635.97;10133337;29;20040;-77
2023/08/09 19:28:18;;;;;;;3.72;2.67;;;;;;;17.50;57.43;100647.97;10136422;29;20059;-77
2023/08/09 19:33:27;;;;;;;2.83;2.53;;;;;;;17.34;58.71;100654.19;10129183;29;20067;-77
2023/08/09 19:38:30;;;;;;;4.45;3.17;;;;;;;17.15;58.64;100658.84;10124863;29;20064;-77
2023/08/09 19:43:34;;;;;;;6.90;3.05;;;;;;;17.03;59.35;100666.38;10125587;29;20063;-77
2023/08/09 19:48:39;;;;;;;4.15;3.30;;;;;;;16.94;59.75;100666.47;10142561;28;20059;-77
2023/08/09 19:53:42;;;;;;;4.63;3.15;;;;;;;16.77;60.42;100677.19;10141730;29;21170;-77
2023/08/09 19:58:46;;;;;;;8.40;3.40;;;;;;;16.72;60.86;100674.09;10141572;29;20060;-78
2023/08/09 20:03:49;;;;;;;5.70;3.88;;;;;;;16.82;60.50;100671.31;10133924;29;20056;-77
2023/08/09 20:08:52;;;;;;;10.88;4.78;;;;;;;16.86;60.43;100674.53;10156992;28;20059;-77
2023/08/09 20:13:56;;;;;;;5.43;4.18;;;;;;;16.78;61.03;100665.34;10138094;29;20103;-77
2023/08/09 20:18:59;;;;;;;7.30;3.67;;;;;;;16.70;61.45;100675.28;10137289;29;20055;-77
2023/08/09 20:24:10;;;;;;;6.75;3.95;;;;;;;16.57;61.64;100678.41;10134519;29;20048;-77
2023/08/09 20:29:15;;;;;;;7.90;4.20;;;;;;;16.43;62.50;100685.22;10133213;29;20047;-77
2023/08/09 20:34:17;;;;;;;6.20;4.00;;;;;;;16.34;63.22;100686.13;10127474;29;20059;-77
2023/08/09 20:39:20;;;;;;;4.32;3.88;;;;;;;16.23;63.97;100683.63;10128839;28;20083;-77
2023/08/09 20:44:25;;;;;;;8.15;4.00;;;;;;;16.18;64.37;100702.19;10132395;29;20052;-76
2023/08/09 20:49:28;;;;;;;7.95;4.18;;;;;;;15.98;64.99;100702.34;10133783;29;20048;-77
2023/08/09 20:54:30;;;;;;;4.65;4.03;;;;;;;15.97;64.81;100706.06;10127876;29;20055;-77
2023/08/09 20:59:35;;;;;;;7.47;3.50;;;;;;;15.97;64.32;100706.06;10127330;29;20551;-77
2023/08/09 21:04:37;;;;;;;5.15;3.35;;;;;;;15.91;64.52;100712.09;10129651;28;20052;-77
2023/08/09 21:09:40;;;;;;;7.78;3.22;;;;;;;15.86;64.80;100714.41;10136490;28;20052;-77
2023/08/09 21:14:46;;;;;;;7.30;3.40;;;;;;;15.74;65.32;100718.28;10134899;29;20579;-77
2023/08/09 21:19:48;;;;;;;5.00;2.53;;;;;;;15.60;65.78;100728.59;10133610;29;20141;-77
2023/08/09 21:24:51;;;;;;;4.38;2.50;;;;;;;15.52;65.68;100727.66;10133916;29;20055;-77
2023/08/09 21:29:59;;;;;;;4.75;2.72;;;;;;;15.50;65.01;100735.94;10133263;29;20055;-77
2023/08/09 21:35:02;;;;;;;5.35;2.78;;;;;;;15.51;64.83;100731.38;10131478;28;20350;-77
2023/08/09 21:40:07;;;;;;;5.20;2.60;;;;;;;15.39;65.05;100728.84;10133358;28;20617;-77
2023/08/09 21:45:12;;;;;;;6.70;2.50;;;;;;;15.30;64.92;100736.94;10127826;29;21291;-77
2023/08/09 21:50:15;;;;;;;4.68;2.35;;;;;;;15.12;64.93;100740.41;10128148;29;20048;-77
2023/08/09 21:55:18;;;;;;;3.65;2.42;;;;;;;15.17;64.22;100742.69;10125301;29;20052;-77
2023/08/09 22:00:23;;;;;;;3.72;1.98;;;;;;;15.12;64.34;100736.88;10133073;28;20056;-76
2023/08/09 22:05:26;;;;;;;6.18;2.22;;;;;;;15.00;64.57;100744.25;10127040;28;20060;-77
2023/08/09 22:10:29;;;;;;;3.03;1.60;;;;;;;14.91;64.47;100750.56;10128877;29;20052;-77
2023/08/09 22:15:33;;;;;;;7.35;2.08;;;;;;;14.95;64.76;100757.41;10130688;29;20051;-77
2023/08/09 22:20:36;;;;;;;3.35;1.77;;;;;;;14.89;64.58;100758.81;10126039;29;20442;-77
2023/08/09 22:25:39;;;;;;;4.90;2.03;;;;;;;14.79;65.15;100769.63;10137290;28;20472;-77
2023/08/09 22:30:43;;;;;;;4.72;2.55;;;;;;;14.71;66.04;100765.94;10149905;28;20505;-77
2023/08/09 22:35:47;;;;;;;5.03;2.22;;;;;;;14.68;66.13;100771.63;10148519;29;20052;-77
2023/08/09 22:40:50;;;;;;;4.43;1.92;;;;;;;14.57;66.50;100772.63;10147084;29;20130;-76
2023/08/09 22:45:54;;;;;;;3.20;1.77;;;;;;;14.54;66.66;100764.78;10146703;29;20629;-77
2023/08/09 22:50:57;;;;;;;3.95;2.17;;;;;;;14.52;66.24;100783.00;10139639;28;20055;-77
2023/08/09 22:56:00;;;;;;;4.25;2.08;;;;;;;14.42;66.69;100787.53;10143513;28;20878;-77
2023/08/09 23:01:04;;;;;;;3.92;1.98;;;;;;;14.28;67.13;100786.03;10142041;29;20045;-77
2023/08/09 23:06:07;;;;;;;5.95;2.42;;;;;;;14.25;66.78;100786.31;10140508;29;21196;-77
2023/08/09 23:11:10;;;;;;;7.13;2.15;;;;;;;14.06;67.19;100790.66;10132155;29;20120;-77